Elyria, Ohio
Current Conditions -  °F | °C
As of 2:53 PM on Thursday 23 Oct 2014 (Local Time) from KLPR Reporting Station
Clear Clear  
Wind Chill: 54°   Ceiling: Unl
Heat Index: 54°   Visibility: 10mi
Dew Point: 39°   Wind: 9mph
Humidity: 57%   Direction: 360°N
Pressure: 30.17"   Gusts: 17mph
Location:  41.37°N, 82.1°W
Report Text: KLPR 231853Z AUTO 36008G15KT 10SM CLR 12/04 A3017 RMK AO2 SLP219 T01220039 TSNO $
Loading
Personal Weather Stations






























Interactive Weather Map New forecast layout! Learn more

10-Day Weather Forecast

Advertisements
Track Severe Weather on mobile